Time;durP1;ratioP1;P1;durP2;ratioP2;P2;SDS_P1;SDS_P2;PMS_P1;PMS_P2;Temp;Humidity;BMP_temperature;BMP_pressure;BME280_temperature;BME280_humidity;BME280_pressure;Samples;Min_cycle;Max_cycle;Signal;HPM_P1;HPM_P2
2022/01/10 00:00:09;;;;;;;34.70;9.35;;;2.20;99.90;;;;;;5057185;28;20055;-69
2022/01/10 00:02:35;;;;;;;28.83;8.82;;;2.10;99.90;;;;;;5057284;28;20056;-70
2022/01/10 00:05:00;;;;;;;41.22;9.15;;;2.10;99.90;;;;;;5057749;28;20045;-69
2022/01/10 00:07:26;;;;;;;33.38;8.30;;;2.10;99.90;;;;;;5022414;28;20049;-70
2022/01/10 00:09:51;;;;;;;31.08;9.13;;;2.10;99.90;;;;;;5057192;28;20052;-70
2022/01/10 00:12:17;;;;;;;36.83;9.63;;;2.00;99.90;;;;;;5056860;28;20048;-67
2022/01/10 00:14:43;;;;;;;32.47;8.43;;;1.90;99.90;;;;;;5039524;28;20053;-69
2022/01/10 00:17:08;;;;;;;37.30;9.07;;;1.90;99.90;;;;;;5057367;28;20045;-68
2022/01/10 00:19:34;;;;;;;38.67;8.73;;;1.90;99.90;;;;;;5057278;28;20456;-70
2022/01/10 00:21:59;;;;;;;40.22;8.38;;;1.90;99.90;;;;;;5039634;28;20052;-70
2022/01/10 00:24:25;;;;;;;32.10;8.95;;;1.90;99.90;;;;;;5054489;28;20057;-69
2022/01/10 00:26:50;;;;;;;36.88;9.05;;;1.80;99.90;;;;;;5052845;28;20417;-67
2022/01/10 00:29:16;;;;;;;34.05;8.45;;;1.80;99.90;;;;;;5057156;28;20040;-68
2022/01/10 00:31:41;;;;;;;33.45;9.48;;;1.70;99.90;;;;;;5056676;28;20075;-69
2022/01/10 00:34:07;;;;;;;34.92;9.88;;;1.70;99.90;;;;;;5056917;28;20346;-69
2022/01/10 00:36:33;;;;;;;35.70;8.93;;;1.70;99.90;;;;;;5056879;28;20048;-66
2022/01/10 00:38:58;;;;;;;41.60;9.48;;;1.70;99.90;;;;;;5056590;28;20051;-68
2022/01/10 00:41:24;;;;;;;30.02;8.25;;;1.60;99.90;;;;;;5056937;28;20139;-68
2022/01/10 00:43:51;;;;;;;26.13;8.65;;;1.60;99.90;;;;;;5056895;28;20412;-68
2022/01/10 00:46:17;;;;;;;34.63;8.65;;;1.60;99.90;;;;;;5049233;28;20042;-70
2022/01/10 00:48:43;;;;;;;30.38;8.45;;;1.50;99.90;;;;;;5036946;28;20080;-69
2022/01/10 00:51:09;;;;;;;32.95;8.63;;;1.50;99.90;;;;;;5036566;28;20467;-69
2022/01/10 00:53:36;;;;;;;30.83;8.45;;;1.40;99.90;;;;;;5036413;28;20116;-68
2022/01/10 00:56:02;;;;;;;33.97;8.10;;;1.40;99.90;;;;;;5018883;28;20049;-69
2022/01/10 00:58:28;;;;;;;30.10;9.27;;;1.30;99.90;;;;;;5036621;28;20045;-69
2022/01/10 01:00:54;;;;;;;34.92;9.38;;;1.30;99.90;;;;;;5036681;28;20033;-69
2022/01/10 01:03:19;;;;;;;35.45;9.40;;;1.30;99.90;;;;;;5036496;28;20081;-68
2022/01/10 01:05:45;;;;;;;37.55;9.63;;;1.30;99.90;;;;;;5036292;28;20049;-70
2022/01/10 01:08:12;;;;;;;34.83;9.63;;;1.20;99.90;;;;;;5036254;28;20073;-68
2022/01/10 01:13:33;;;;;;;32.60;8.63;;;1.70;99.90;;;;;;5018598;28;20065;-67
2022/01/10 01:26:32;;;;;;;33.90;9.82;;;1.00;99.90;;;;;;5035851;28;20045;-69
2022/01/10 01:28:57;;;;;;;36.92;9.57;;;1.00;99.90;;;;;;5036010;28;20457;-69
2022/01/10 01:31:23;;;;;;;33.72;9.18;;;1.40;99.90;;;;;;5035818;28;20037;-70
2022/01/10 01:33:49;;;;;;;36.10;10.13;;;0.90;99.90;;;;;;5018783;28;20484;-69
2022/01/10 01:36:20;;;;;;;35.03;9.75;;;0.90;99.90;;;;;;5036225;28;20043;-70
2022/01/10 01:38:46;;;;;;;45.30;9.77;;;0.90;99.90;;;;;;5017817;28;20045;-68
2022/01/10 01:41:34;;;;;;;32.10;9.85;;;0.90;99.90;;;;;;5035885;28;20048;-69
2022/01/10 01:44:00;;;;;;;30.88;8.20;;;0.80;99.90;;;;;;5035868;28;20067;-68
2022/01/10 01:46:26;;;;;;;30.55;9.82;;;0.80;99.90;;;;;;5034952;28;20045;-69
2022/01/10 01:48:53;;;;;;;33.53;9.32;;;0.80;99.90;;;;;;5035546;28;20052;-67
2022/01/10 01:51:19;;;;;;;43.25;10.13;;;0.80;99.90;;;;;;5035265;28;20081;-68
2022/01/10 01:53:46;;;;;;;29.00;8.13;;;0.70;99.90;;;;;;5035702;28;20457;-69
2022/01/10 01:56:13;;;;;;;38.00;9.25;;;0.70;99.90;;;;;;5018031;28;20137;-68
2022/01/10 01:58:41;;;;;;;38.65;9.68;;;0.70;99.90;;;;;;5035068;28;20045;-68
2022/01/10 02:01:07;;;;;;;34.13;10.10;;;0.80;99.90;;;;;;5017960;28;20057;-68
2022/01/10 02:03:33;;;;;;;40.55;11.07;;;0.70;99.90;;;;;;5035288;28;20063;-69
2022/01/10 02:06:00;;;;;;;34.05;9.75;;;0.70;99.90;;;;;;5035144;28;20041;-69
2022/01/10 02:08:26;;;;;;;40.15;10.57;;;0.80;99.90;;;;;;5035173;28;20369;-69
2022/01/10 02:10:52;;;;;;;36.63;9.32;;;0.70;99.90;;;;;;5035169;28;20047;-68
2022/01/10 02:13:18;;;;;;;30.92;10.02;;;0.70;99.90;;;;;;5017833;28;20053;-69
2022/01/10 02:15:49;;;;;;;35.13;10.13;;;0.60;99.90;;;;;;5019529;28;20476;-70
2022/01/10 02:18:17;;;;;;;37.03;11.02;;;0.60;99.90;;;;;;5034982;28;20408;-69
2022/01/10 02:20:43;;;;;;;36.90;10.57;;;0.60;99.90;;;;;;5017763;28;20083;-69
2022/01/10 02:23:09;;;;;;;31.42;9.80;;;0.50;99.90;;;;;;5035184;28;20045;-68
2022/01/10 02:25:34;;;;;;;48.70;10.07;;;0.50;99.90;;;;;;5051382;28;20064;-70
2022/01/10 02:28:00;;;;;;;33.97;9.38;;;0.60;99.90;;;;;;5053137;28;20045;-70
2022/01/10 02:30:27;;;;;;;36.15;10.27;;;0.50;99.90;;;;;;5054806;28;20041;-69
2022/01/10 02:32:56;;;;;;;35.33;10.48;;;0.50;99.90;;;;;;5054803;28;20064;-69
2022/01/10 02:35:29;;;;;;;38.05;9.75;;;0.40;99.90;;;;;;5055162;28;20049;-69
2022/01/10 02:37:55;;;;;;;27.00;10.13;;;0.40;99.90;;;;;;5036973;28;20469;-67
2022/01/10 02:40:24;;;;;;;35.60;9.98;;;0.40;99.90;;;;;;5036938;28;20178;-68
2022/01/10 02:42:51;;;;;;;30.88;10.50;;;0.30;99.90;;;;;;5037483;28;20068;-67
2022/01/10 02:45:17;;;;;;;29.15;9.43;;;0.30;99.90;;;;;;5036144;28;20045;-68
2022/01/10 02:47:43;;;;;;;36.03;10.45;;;0.30;99.90;;;;;;5017801;28;20057;-68
2022/01/10 02:50:10;;;;;;;29.85;10.40;;;0.20;99.90;;;;;;5052799;28;20116;-69
2022/01/10 02:52:37;;;;;;;36.35;11.18;;;0.20;99.90;;;;;;5041010;28;20072;-69
2022/01/10 02:55:04;;;;;;;43.95;10.80;;;0.20;99.90;;;;;;5059340;28;20088;-70
2022/01/10 02:57:31;;;;;;;38.45;11.50;;;0.20;99.90;;;;;;5040969;28;20053;-68
2022/01/10 02:59:58;;;;;;;38.10;11.77;;;0.60;99.90;;;;;;5041181;28;20132;-68
2022/01/10 03:02:29;;;;;;;53.80;11.27;;;0.10;99.90;;;;;;5058626;28;20512;-68
2022/01/10 03:04:54;;;;;;;32.88;10.55;;;0.10;99.90;;;;;;5040927;28;20071;-69
2022/01/10 03:07:23;;;;;;;30.98;10.45;;;0.10;99.90;;;;;;5040860;28;20049;-69
2022/01/10 03:09:49;;;;;;;33.70;10.73;;;0.20;99.90;;;;;;5057971;28;20053;-71
2022/01/10 03:12:15;;;;;;;37.72;10.95;;;0.10;99.90;;;;;;5058655;28;20075;-68
2022/01/10 03:14:42;;;;;;;45.72;11.57;;;0.10;99.90;;;;;;5023510;28;20064;-69
2022/01/10 03:17:08;;;;;;;30.13;11.38;;;0.10;99.90;;;;;;5039956;28;20420;-69
2022/01/10 03:19:34;;;;;;;32.60;11.02;;;0.10;99.90;;;;;;5021049;28;20041;-69
2022/01/10 03:22:00;;;;;;;32.08;11.65;;;0.00;99.90;;;;;;5038038;28;20457;-69
2022/01/10 03:24:26;;;;;;;29.75;11.98;;;0.00;99.90;;;;;;5021558;28;20049;-69
2022/01/10 03:26:51;;;;;;;35.22;11.38;;;0.00;99.90;;;;;;5038503;28;20454;-68
2022/01/10 03:29:18;;;;;;;45.78;12.63;;;0.00;99.90;;;;;;5038117;28;20069;-70
2022/01/10 03:31:44;;;;;;;34.33;12.07;;;0.00;99.90;;;;;;5021280;28;20069;-69
2022/01/10 03:34:12;;;;;;;54.80;12.90;;;0.00;99.90;;;;;;5020879;28;20046;-69
2022/01/10 03:36:38;;;;;;;39.78;12.68;;;0.00;99.90;;;;;;5037843;28;20077;-71
2022/01/10 03:39:04;;;;;;;41.13;12.52;;;0.00;99.90;;;;;;5021051;28;20049;-69
2022/01/10 03:41:30;;;;;;;46.67;13.00;;;0.00;99.90;;;;;;5021011;28;20053;-68
2022/01/10 03:43:55;;;;;;;52.85;15.15;;;-0.10;99.90;;;;;;5020876;28;20136;-71
2022/01/10 03:46:21;;;;;;;41.65;13.00;;;-0.10;99.90;;;;;;5048621;28;20065;-70
2022/01/10 03:48:46;;;;;;;34.95;12.55;;;0.10;99.90;;;;;;5040451;28;20044;-68
2022/01/10 03:51:12;;;;;;;39.63;14.00;;;-0.10;99.90;;;;;;5057653;28;20449;-70
2022/01/10 03:53:37;;;;;;;45.42;15.02;;;-0.10;99.90;;;;;;5040254;28;20465;-70
2022/01/10 03:56:04;;;;;;;43.63;14.75;;;-0.10;99.90;;;;;;5040379;28;20056;-68
2022/01/10 03:58:29;;;;;;;46.55;15.13;;;-0.10;99.90;;;;;;5039986;28;20049;-69
2022/01/10 04:00:55;;;;;;;45.50;15.75;;;-0.10;99.90;;;;;;5057326;28;20045;-68
2022/01/10 04:03:20;;;;;;;50.78;16.75;;;0.00;99.90;;;;;;5057406;28;20049;-69
2022/01/10 04:05:46;;;;;;;60.38;17.73;;;-0.10;99.90;;;;;;5057420;28;20124;-69
2022/01/10 04:08:12;;;;;;;46.92;16.10;;;0.00;99.90;;;;;;5039440;28;20106;-69
2022/01/10 04:10:38;;;;;;;62.28;18.63;;;0.10;99.90;;;;;;5057130;28;20194;-69
2022/01/10 04:13:04;;;;;;;42.22;16.38;;;0.00;99.90;;;;;;5056981;28;20471;-70
2022/01/10 04:15:29;;;;;;;47.00;17.52;;;0.00;99.90;;;;;;5050295;28;20077;-69
2022/01/10 04:17:57;;;;;;;66.97;19.88;;;-0.10;99.90;;;;;;5020133;28;20357;-70
2022/01/10 04:20:25;;;;;;;68.47;19.52;;;-0.10;99.90;;;;;;5019535;28;20038;-70
2022/01/10 04:22:51;;;;;;;75.60;19.05;;;-0.10;99.90;;;;;;5020367;28;20416;-69
2022/01/10 04:25:18;;;;;;;54.17;18.70;;;-0.10;99.90;;;;;;5019894;28;20054;-68
2022/01/10 04:27:43;;;;;;;64.40;19.60;;;-0.10;99.90;;;;;;5019714;28;20049;-68
2022/01/10 04:30:10;;;;;;;62.33;19.83;;;-0.10;99.90;;;;;;5019786;28;20108;-68
2022/01/10 04:32:36;;;;;;;61.80;20.48;;;-0.10;99.90;;;;;;5019656;28;20053;-69
2022/01/10 04:35:03;;;;;;;69.97;21.92;;;0.50;99.90;;;;;;5003457;28;20115;-68
2022/01/10 04:37:28;;;;;;;64.80;21.27;;;-0.10;99.90;;;;;;5018989;28;20085;-71
2022/01/10 04:39:54;;;;;;;71.97;21.98;;;0.00;99.90;;;;;;5019778;28;20082;-69
2022/01/10 04:42:20;;;;;;;61.22;20.77;;;0.20;99.90;;;;;;5036732;28;20409;-69
2022/01/10 04:44:45;;;;;;;63.05;21.17;;;-0.10;99.90;;;;;;5036932;28;20107;-69
2022/01/10 04:47:11;;;;;;;75.97;22.08;;;-0.10;99.90;;;;;;5056733;28;20449;-70
2022/01/10 04:50:36;;;;;;;65.22;21.23;;;-0.10;99.90;;;;;;5056557;28;20405;-68
2022/01/10 04:52:22;;;;;;;79.57;22.92;;;-0.20;99.90;;;;;;5028189;28;20091;-68
2022/01/10 04:54:48;;;;;;;62.67;19.67;;;-0.20;99.90;;;;;;5039317;28;20534;-68
2022/01/10 04:57:14;;;;;;;70.88;22.70;;;-0.20;99.90;;;;;;5056150;28;20428;-69
2022/01/10 04:59:39;;;;;;;65.72;22.42;;;-0.20;99.90;;;;;;5055514;28;20500;-70
2022/01/10 05:02:05;;;;;;;69.25;22.50;;;-0.20;99.90;;;;;;5056141;28;20139;-69
2022/01/10 05:04:30;;;;;;;87.15;23.67;;;-0.10;99.90;;;;;;5055894;28;20467;-69
2022/01/10 05:06:56;;;;;;;73.38;23.30;;;-0.20;99.90;;;;;;5056181;28;20049;-68
2022/01/10 05:09:22;;;;;;;72.00;23.58;;;-0.20;99.90;;;;;;5055550;28;20428;-69
2022/01/10 05:11:47;;;;;;;65.82;23.77;;;-0.20;99.90;;;;;;5037738;28;20134;-68
2022/01/10 05:14:13;;;;;;;85.68;23.83;;;-0.20;99.90;;;;;;5056221;28;20060;-68
2022/01/10 05:16:40;;;;;;;84.90;25.20;;;-0.20;99.90;;;;;;5025196;28;20049;-69
2022/01/10 05:19:07;;;;;;;80.25;25.10;;;-0.20;99.90;;;;;;5035679;28;20081;-70
2022/01/10 05:21:32;;;;;;;72.70;23.50;;;-0.20;99.90;;;;;;5018786;28;20064;-69
2022/01/10 05:23:58;;;;;;;76.82;25.13;;;-0.20;99.90;;;;;;5018458;28;20045;-70
2022/01/10 05:26:24;;;;;;;76.55;23.42;;;-0.30;99.90;;;;;;5035855;28;20052;-68
2022/01/10 05:28:52;;;;;;;65.53;25.30;;;-0.20;99.90;;;;;;5036140;28;20103;-69
2022/01/10 05:31:17;;;;;;;87.35;27.13;;;-0.20;99.90;;;;;;5017718;28;20121;-68
2022/01/10 05:33:43;;;;;;;90.78;26.17;;;-0.20;99.90;;;;;;5018390;28;20454;-70
2022/01/10 05:36:08;;;;;;;92.78;26.05;;;-0.20;99.90;;;;;;5035668;28;20052;-69
2022/01/10 05:38:34;;;;;;;74.70;24.42;;;-0.20;99.90;;;;;;5035769;28;20057;-68
2022/01/10 05:41:00;;;;;;;95.47;25.90;;;-0.30;99.90;;;;;;5018408;28;20056;-69
2022/01/10 05:43:25;;;;;;;79.72;24.75;;;-0.20;99.90;;;;;;5018342;28;20454;-70
2022/01/10 05:45:51;;;;;;;72.05;25.63;;;-0.30;99.90;;;;;;5035185;28;20049;-68
2022/01/10 05:48:24;;;;;;;90.68;26.17;;;-0.30;99.90;;;;;;5018294;28;20052;-69
2022/01/10 05:50:50;;;;;;;75.90;25.42;;;-0.40;99.90;;;;;;5035341;28;20045;-70
2022/01/10 05:53:17;;;;;;;81.65;23.25;;;-0.40;99.90;;;;;;5035461;28;20071;-69
2022/01/10 05:55:42;;;;;;;86.47;24.77;;;-0.40;99.90;;;;;;5035449;28;20045;-69
2022/01/10 05:58:08;;;;;;;81.50;24.33;;;-0.40;99.90;;;;;;5035306;28;20038;-69
2022/01/10 06:00:34;;;;;;;81.40;24.95;;;-0.40;99.90;;;;;;5018189;28;20133;-68
2022/01/10 06:03:01;;;;;;;77.82;24.85;;;-0.40;99.90;;;;;;5035242;28;20152;-69
2022/01/10 06:05:30;;;;;;;94.38;25.77;;;-0.50;99.90;;;;;;5035200;28;20504;-69
2022/01/10 06:08:02;;;;;;;82.97;25.45;;;-0.40;99.90;;;;;;5017285;28;20050;-69
2022/01/10 06:10:29;;;;;;;68.75;23.70;;;-0.50;99.90;;;;;;5034817;28;20061;-69
2022/01/10 06:12:56;;;;;;;95.10;26.95;;;-0.50;99.90;;;;;;5034978;28;20050;-68
2022/01/10 06:15:22;;;;;;;84.22;25.05;;;-0.50;99.90;;;;;;5037142;28;20045;-70
2022/01/10 06:17:49;;;;;;;82.43;24.35;;;0.00;99.90;;;;;;5034957;28;20357;-68
2022/01/10 06:20:15;;;;;;;84.38;26.42;;;0.00;99.90;;;;;;5035363;28;20042;-70
2022/01/10 06:22:41;;;;;;;109.80;27.38;;;-0.50;99.90;;;;;;5035009;28;20053;-70
2022/01/10 06:25:09;;;;;;;68.40;25.92;;;-0.60;99.90;;;;;;5034330;28;20041;-70
2022/01/10 06:27:35;;;;;;;91.10;25.13;;;-0.60;99.90;;;;;;5034515;28;20049;-67
2022/01/10 06:30:01;;;;;;;83.18;26.48;;;-0.60;99.90;;;;;;5017811;28;20048;-69
2022/01/10 06:32:27;;;;;;;89.80;25.75;;;-0.60;99.90;;;;;;5018074;28;20088;-68
2022/01/10 06:34:52;;;;;;;79.88;25.80;;;-0.60;99.90;;;;;;5035148;28;20049;-68
2022/01/10 06:37:19;;;;;;;92.82;27.27;;;-0.60;99.90;;;;;;5034876;28;20057;-70
2022/01/10 06:39:44;;;;;;;75.05;25.65;;;-0.60;99.90;;;;;;5034375;28;20057;-69
2022/01/10 06:42:10;;;;;;;95.72;28.90;;;-0.70;99.90;;;;;;5017131;28;20041;-70
2022/01/10 06:44:36;;;;;;;83.25;27.30;;;-0.70;99.90;;;;;;5017473;28;20053;-70
2022/01/10 06:47:02;;;;;;;84.15;26.13;;;-0.70;99.90;;;;;;5034872;28;20393;-70
2022/01/10 06:49:28;;;;;;;83.57;26.83;;;-0.70;99.90;;;;;;5034839;28;20046;-70
2022/01/10 06:51:53;;;;;;;81.40;25.67;;;-0.70;99.90;;;;;;5034548;28;20407;-68
2022/01/10 06:54:19;;;;;;;77.90;26.70;;;-0.70;99.90;;;;;;5017290;28;20045;-70
2022/01/10 06:56:44;;;;;;;78.50;27.42;;;-0.70;99.90;;;;;;5034651;28;20049;-71
2022/01/10 06:59:10;;;;;;;78.70;26.65;;;-0.70;99.90;;;;;;5034354;28;20053;-69
2022/01/10 07:01:36;;;;;;;93.03;28.42;;;-0.70;99.90;;;;;;5034646;28;20060;-69
2022/01/10 07:04:02;;;;;;;81.75;26.95;;;-0.80;99.90;;;;;;5034529;28;20133;-69
2022/01/10 07:06:27;;;;;;;78.78;26.50;;;-0.30;99.90;;;;;;5034569;28;20128;-69
2022/01/10 07:08:53;;;;;;;77.97;26.27;;;-0.80;99.90;;;;;;5017444;28;20087;-70
2022/01/10 07:11:18;;;;;;;84.38;27.10;;;-0.80;99.90;;;;;;5034642;28;20056;-70
2022/01/10 07:13:44;;;;;;;76.28;25.85;;;-0.80;99.90;;;;;;5034425;28;20547;-69
2022/01/10 07:16:10;;;;;;;83.88;28.13;;;-0.80;99.90;;;;;;5016970;28;20108;-69
2022/01/10 07:18:36;;;;;;;98.72;28.48;;;-0.80;99.90;;;;;;5034446;28;20037;-71
2022/01/10 07:21:02;;;;;;;77.20;28.67;;;-0.90;99.90;;;;;;5035062;28;20045;-69
2022/01/10 07:23:27;;;;;;;75.65;29.58;;;-0.90;99.90;;;;;;5034564;28;20128;-69
2022/01/10 07:25:53;;;;;;;92.65;29.42;;;-0.90;99.90;;;;;;5034492;28;20064;-69
2022/01/10 07:28:18;;;;;;;84.50;29.73;;;-0.90;99.90;;;;;;5034473;28;20401;-70
2022/01/10 07:30:44;;;;;;;86.80;30.15;;;-0.90;99.90;;;;;;5034650;28;20095;-68
2022/01/10 07:33:11;;;;;;;83.30;29.38;;;-0.80;99.90;;;;;;5034699;28;20060;-68
2022/01/10 07:35:36;;;;;;;85.07;28.88;;;-0.80;99.90;;;;;;5018467;28;20049;-68
2022/01/10 07:38:02;;;;;;;88.75;30.45;;;-0.90;99.90;;;;;;5038118;28;20107;-70
2022/01/10 07:40:28;;;;;;;84.75;30.65;;;-0.90;99.90;;;;;;5037846;28;20413;-69
2022/01/10 07:42:53;;;;;;;71.97;30.73;;;-0.90;99.90;;;;;;5020630;28;20046;-69
2022/01/10 07:45:19;;;;;;;79.70;29.98;;;-0.90;99.90;;;;;;5054753;28;20056;-69
2022/01/10 07:47:45;;;;;;;95.00;31.73;;;-0.90;99.90;;;;;;5057952;28;20457;-70
2022/01/10 07:50:11;;;;;;;85.72;33.10;;;-0.90;99.90;;;;;;5057639;28;20049;-69
2022/01/10 07:52:37;;;;;;;101.90;35.17;;;-0.90;99.90;;;;;;5048461;28;20045;-69
2022/01/10 07:55:03;;;;;;;93.68;35.85;;;-0.90;99.90;;;;;;5037417;28;20057;-72
2022/01/10 07:57:29;;;;;;;106.40;35.53;;;-0.90;99.90;;;;;;5037376;28;20076;-69
2022/01/10 07:59:54;;;;;;;95.13;32.78;;;-0.90;99.90;;;;;;5037394;28;20446;-69
2022/01/10 08:02:21;;;;;;;104.55;33.85;;;-0.90;99.90;;;;;;5020139;28;20045;-69
2022/01/10 08:04:47;;;;;;;72.85;31.30;;;-0.90;99.90;;;;;;5037404;28;20053;-69
2022/01/10 08:07:13;;;;;;;89.70;33.70;;;-0.90;99.90;;;;;;5020143;28;20061;-70
2022/01/10 08:09:39;;;;;;;104.88;34.97;;;-0.30;99.90;;;;;;5037044;28;20053;-70
2022/01/10 08:12:05;;;;;;;81.32;33.17;;;-0.90;99.90;;;;;;5019557;28;20053;-69
2022/01/10 08:14:31;;;;;;;111.30;37.85;;;-0.90;99.90;;;;;;5029570;28;20045;-70
2022/01/10 08:16:57;;;;;;;97.28;36.22;;;-0.80;99.90;;;;;;5056697;28;20132;-68
2022/01/10 08:19:23;;;;;;;111.43;37.78;;;-0.80;99.90;;;;;;5056559;28;20516;-71
2022/01/10 08:21:49;;;;;;;104.75;38.53;;;-0.80;99.90;;;;;;5057075;28;20079;-70
2022/01/10 08:24:15;;;;;;;103.72;37.63;;;-0.80;99.90;;;;;;5057081;28;20059;-67
2022/01/10 08:26:41;;;;;;;93.97;37.53;;;-0.80;99.90;;;;;;5056761;28;20089;-68
2022/01/10 08:29:07;;;;;;;113.43;42.42;;;-0.80;99.90;;;;;;5039401;28;20360;-69
2022/01/10 08:31:34;;;;;;;96.10;38.20;;;-0.70;99.90;;;;;;5056771;28;20099;-69
2022/01/10 08:34:04;;;;;;;101.70;39.65;;;-0.70;99.90;;;;;;5056965;28;20049;-71
2022/01/10 08:36:30;;;;;;;116.20;43.90;;;-0.70;99.90;;;;;;5052789;28;20461;-69
2022/01/10 08:38:56;;;;;;;123.40;45.38;;;-0.70;99.90;;;;;;5048286;28;20048;-69
2022/01/10 08:41:22;;;;;;;96.85;40.75;;;-0.70;99.90;;;;;;5036565;28;20053;-68
2022/01/10 08:43:47;;;;;;;113.55;43.38;;;-0.70;99.90;;;;;;5051792;28;20353;-68
2022/01/10 08:46:13;;;;;;;110.55;42.30;;;-0.70;99.90;;;;;;5018846;28;20488;-69
2022/01/10 08:48:40;;;;;;;110.35;44.33;;;-0.60;99.90;;;;;;5036403;28;20049;-68
2022/01/10 08:51:06;;;;;;;126.60;46.53;;;0.00;99.90;;;;;;5036380;28;20068;-68
2022/01/10 08:53:32;;;;;;;120.07;44.58;;;-0.50;99.90;;;;;;5036278;28;20450;-69
2022/01/10 08:55:58;;;;;;;95.38;42.92;;;-0.60;99.90;;;;;;5019652;28;20049;-70
2022/01/10 08:58:26;;;;;;;126.10;46.58;;;-0.60;99.90;;;;;;5019121;28;20045;-68
2022/01/10 09:00:52;;;;;;;117.53;43.85;;;-0.50;99.90;;;;;;5019164;28;20057;-70
2022/01/10 09:03:18;;;;;;;104.68;43.58;;;-0.50;99.90;;;;;;5037396;28;20045;-68
2022/01/10 09:05:44;;;;;;;114.65;43.47;;;-0.50;99.90;;;;;;5047255;28;20147;-69
2022/01/10 09:08:09;;;;;;;120.25;46.20;;;-0.50;99.90;;;;;;5038110;28;20427;-68
2022/01/10 09:10:35;;;;;;;128.45;47.10;;;-0.40;99.90;;;;;;5038428;28;20136;-69
2022/01/10 09:13:01;;;;;;;130.48;48.25;;;-0.40;99.90;;;;;;5038497;28;20508;-69
2022/01/10 09:15:27;;;;;;;147.30;51.53;;;-0.30;99.90;;;;;;5055720;28;20071;-70
2022/01/10 09:17:53;;;;;;;147.18;51.45;;;-0.30;99.90;;;;;;5055764;28;20052;-68
2022/01/10 09:20:19;;;;;;;149.95;51.40;;;-0.20;99.90;;;;;;5038325;28;20123;-69
2022/01/10 09:22:44;;;;;;;130.38;49.75;;;0.40;99.90;;;;;;5055777;28;20056;-69
2022/01/10 09:25:10;;;;;;;152.60;51.50;;;0.00;99.90;;;;;;5037889;28;20060;-70
2022/01/10 09:27:36;;;;;;;158.15;52.00;;;-0.10;99.90;;;;;;5055652;28;20070;-69
2022/01/10 09:30:03;;;;;;;166.27;52.78;;;-0.10;99.90;;;;;;5055364;28;20044;-70
2022/01/10 09:32:29;;;;;;;144.68;51.45;;;-0.10;99.90;;;;;;5038502;28;20044;-69
2022/01/10 09:34:55;;;;;;;152.20;53.40;;;0.00;99.90;;;;;;5034054;28;20053;-68
2022/01/10 09:37:22;;;;;;;150.57;53.90;;;0.00;99.90;;;;;;5035336;28;20052;-68
2022/01/10 09:39:47;;;;;;;143.15;53.15;;;0.10;99.90;;;;;;5018543;28;20060;-69
2022/01/10 09:42:13;;;;;;;174.55;55.42;;;0.10;99.90;;;;;;5034158;28;20404;-70
2022/01/10 09:44:40;;;;;;;171.10;58.25;;;0.20;99.90;;;;;;5035550;28;20139;-69
2022/01/10 09:47:06;;;;;;;165.18;56.40;;;0.20;99.90;;;;;;5035423;28;20132;-68
2022/01/10 09:49:32;;;;;;;160.15;52.53;;;0.20;99.90;;;;;;5018021;28;20141;-69
2022/01/10 09:51:57;;;;;;;136.27;51.70;;;0.20;99.90;;;;;;5035106;28;20456;-71
2022/01/10 09:54:23;;;;;;;150.98;55.33;;;0.20;99.90;;;;;;5035151;28;20123;-70
2022/01/10 09:56:49;;;;;;;167.02;56.30;;;0.30;99.90;;;;;;5035427;28;20091;-69
2022/01/10 09:59:15;;;;;;;147.80;55.50;;;0.30;99.90;;;;;;5020540;28;21782;-69
2022/01/10 10:01:43;;;;;;;159.50;55.65;;;0.40;99.90;;;;;;5055185;28;20079;-69
2022/01/10 10:04:11;;;;;;;147.38;56.42;;;0.40;99.90;;;;;;5055474;28;20361;-69
2022/01/10 10:06:37;;;;;;;168.02;62.13;;;0.40;99.90;;;;;;5055085;28;20045;-68
2022/01/10 10:09:05;;;;;;;168.02;58.55;;;0.50;99.90;;;;;;5037761;28;20047;-70
2022/01/10 10:11:42;;;;;;;209.48;63.75;;;0.50;99.90;;;;;;5055179;28;20143;-68
2022/01/10 10:14:10;;;;;;;175.80;57.80;;;0.60;99.90;;;;;;5055078;28;20040;-69
2022/01/10 10:16:37;;;;;;;174.88;59.58;;;0.60;99.90;;;;;;5054970;28;20045;-69
2022/01/10 10:19:05;;;;;;;163.07;57.38;;;0.60;99.90;;;;;;5037252;28;20459;-69
2022/01/10 10:21:33;;;;;;;147.23;56.78;;;0.70;99.90;;;;;;5037175;28;20048;-69
2022/01/10 10:23:59;;;;;;;163.02;57.55;;;0.60;99.90;;;;;;5037051;28;20465;-70
2022/01/10 10:26:26;;;;;;;168.63;55.88;;;0.70;99.90;;;;;;5055336;28;20202;-70
2022/01/10 10:28:54;;;;;;;148.40;54.75;;;0.70;99.90;;;;;;5054741;28;20445;-69
2022/01/10 10:31:32;;;;;;;144.68;57.42;;;0.80;99.90;;;;;;5035408;28;20045;-69
2022/01/10 10:34:01;;;;;;;171.07;59.53;;;0.80;99.90;;;;;;5017259;28;20146;-68
2022/01/10 10:36:31;;;;;;;208.95;64.82;;;0.80;99.90;;;;;;5034640;28;20101;-70
2022/01/10 10:38:57;;;;;;;149.40;57.38;;;0.90;99.90;;;;;;5035145;28;20216;-70
2022/01/10 10:41:23;;;;;;;211.77;64.20;;;0.90;99.90;;;;;;5017730;28;20053;-70
2022/01/10 10:43:54;;;;;;;161.95;57.45;;;1.00;99.90;;;;;;5035127;28;20380;-69
2022/01/10 10:46:25;;;;;;;149.00;57.45;;;1.00;99.90;;;;;;5034622;28;20089;-69
2022/01/10 10:48:58;;;;;;;209.60;64.57;;;1.10;99.90;;;;;;5017076;28;20517;-70
2022/01/10 10:51:29;;;;;;;180.02;62.28;;;1.10;99.90;;;;;;5034517;28;20050;-72
2022/01/10 10:54:06;;;;;;;160.90;58.80;;;1.20;99.90;;;;;;5034623;28;20220;-69
2022/01/10 10:56:34;;;;;;;200.77;63.72;;;1.20;99.90;;;;;;5034545;28;20046;-69
2022/01/10 10:58:59;;;;;;;225.57;69.68;;;1.30;99.90;;;;;;5017096;28;20049;-71
2022/01/10 11:01:25;;;;;;;124.63;54.65;;;1.30;99.90;;;;;;5019776;28;20058;-69
2022/01/10 11:03:51;;;;;;;138.63;58.65;;;1.40;99.90;;;;;;5034581;28;20092;-69
2022/01/10 11:06:16;;;;;;;219.77;68.50;;;1.50;99.90;;;;;;5034009;28;20049;-70
2022/01/10 11:08:43;;;;;;;202.65;66.35;;;1.50;99.90;;;;;;5017025;28;20061;-69
2022/01/10 11:11:14;;;;;;;180.43;62.92;;;1.60;99.90;;;;;;5018905;28;20540;-69
2022/01/10 11:13:41;;;;;;;212.07;71.75;;;1.60;99.90;;;;;;5021427;28;20081;-70
2022/01/10 11:16:08;;;;;;;178.63;64.95;;;1.70;99.90;;;;;;5038157;28;20060;-71
2022/01/10 11:18:34;;;;;;;171.45;60.17;;;1.70;99.90;;;;;;5038203;28;20052;-69
2022/01/10 11:20:59;;;;;;;169.15;63.70;;;1.70;99.90;;;;;;5038347;28;20041;-69
2022/01/10 11:23:27;;;;;;;178.02;62.17;;;1.80;99.90;;;;;;5020974;28;20418;-70
2022/01/10 11:25:56;;;;;;;167.85;63.20;;;1.80;99.90;;;;;;5038055;28;20064;-70
2022/01/10 11:28:24;;;;;;;171.05;63.70;;;1.90;99.90;;;;;;5021079;28;20373;-70
2022/01/10 11:30:58;;;;;;;207.32;65.32;;;1.90;99.90;;;;;;5020762;28;20110;-68
2022/01/10 11:33:26;;;;;;;171.20;60.63;;;2.00;99.90;;;;;;5038173;28;20458;-70
2022/01/10 11:36:03;;;;;;;155.95;59.03;;;2.00;99.90;;;;;;5020636;28;20456;-70
2022/01/10 11:38:39;;;;;;;194.90;61.67;;;2.10;99.90;;;;;;5050631;28;20404;-69
2022/01/10 11:41:11;;;;;;;168.68;61.78;;;2.10;99.90;;;;;;5057585;28;20056;-70
2022/01/10 11:44:03;;;;;;;189.85;63.70;;;2.20;99.90;;;;;;5058513;28;20099;-68
2022/01/10 11:46:38;;;;;;;214.73;66.03;;;2.20;99.90;;;;;;5040430;28;20053;-68
2022/01/10 11:49:18;;;;;;;214.82;66.97;;;2.30;99.90;;;;;;5057398;28;20056;-68
2022/01/10 11:51:49;;;;;;;155.02;58.60;;;2.30;99.90;;;;;;5040160;28;20052;-69
2022/01/10 11:54:22;;;;;;;156.88;58.83;;;2.30;99.90;;;;;;5040341;28;20170;-69
2022/01/10 11:56:53;;;;;;;155.80;56.92;;;2.40;99.90;;;;;;5057466;28;20041;-69
2022/01/10 11:59:31;;;;;;;148.65;57.65;;;2.40;99.90;;;;;;5053988;28;20056;-68
2022/01/10 12:02:10;;;;;;;144.02;54.67;;;2.50;99.90;;;;;;5019880;28;20060;-69
2022/01/10 12:04:38;;;;;;;196.23;62.83;;;2.60;99.90;;;;;;5020133;28;20130;-69
2022/01/10 12:07:06;;;;;;;147.52;52.88;;;2.60;99.90;;;;;;5020073;28;20060;-70
2022/01/10 12:09:33;;;;;;;165.70;54.90;;;2.70;99.90;;;;;;5037090;28;20124;-69
2022/01/10 12:12:00;;;;;;;142.88;52.22;;;2.80;99.90;;;;;;5037675;28;20120;-68
2022/01/10 12:14:26;;;;;;;143.77;52.28;;;2.80;99.90;;;;;;5019919;28;20164;-70
2022/01/10 12:16:53;;;;;;;107.57;46.42;;;2.80;99.90;;;;;;5036905;28;20065;-68
2022/01/10 12:19:20;;;;;;;116.68;46.63;;;2.90;99.90;;;;;;5019826;28;20072;-70
2022/01/10 12:21:46;;;;;;;132.48;49.90;;;2.90;99.90;;;;;;5035318;28;20049;-69
2022/01/10 12:24:12;;;;;;;157.57;57.78;;;3.00;99.90;;;;;;5019603;28;20056;-68
2022/01/10 12:26:38;;;;;;;143.45;54.03;;;3.00;99.90;;;;;;5037038;28;20068;-68
2022/01/10 12:29:06;;;;;;;124.10;50.83;;;3.10;99.90;;;;;;5037889;28;20045;-69
2022/01/10 12:31:34;;;;;;;178.35;56.95;;;3.10;99.90;;;;;;5035047;28;20398;-69
2022/01/10 12:34:01;;;;;;;115.43;49.95;;;3.20;99.90;;;;;;5019823;28;20453;-70
2022/01/10 12:36:28;;;;;;;140.05;52.40;;;3.20;99.90;;;;;;5036997;28;20358;-68
2022/01/10 12:38:58;;;;;;;164.00;55.45;;;3.20;99.90;;;;;;5019239;28;20068;-69
2022/01/10 12:41:25;;;;;;;112.88;48.08;;;3.40;99.90;;;;;;5036522;28;20103;-69